Aeroporto :
LOGIN :

Iscrizione | Disclaimer

   EN    FR    IT 

 










Sommario :    VFR   VFR Marginale   IFR   IFR Intensivo   IFR Molto Intensivo
Visibilità : 
Base nubi : 
>= 8 km
>= 3000ft
5 / 8 km
1000 / 3000 ft
1500m / 5 km
500 / 1000 ft
800 / 1500m
200 / 500 ft
< 800m
< 200 ft
Simboli :   Temporali  Nebbia  Neve Forte  Precipitazioni Forti  Vento > 20 kt
SIGMETs :   Varie  Temporali  Ghiacco  Turbolenza  Onda orograficha  Ceneri Vulcaniche






- Altitudine del aeroporto : 194 ft


EBCV - Chièvres

ULTIMO METAR :
  • 191325Z AUTO 20009KT 9999 FEW018/// 13/10 Q1004 BLU

METARs OBSOLETI :
  • 191255Z AUTO 20012KT 9999 FEW052/// 13/10 Q1004 BLU
  • 191225Z AUTO 20011KT 9999 FEW130/// 14/10 Q1004 BLU
  • 191155Z AUTO 20010KT 9999 FEW130/// 13/10 Q1004 BLU
  • 191125Z AUTO 20011KT 9999 NCD 13/10 Q1004 BLU
  • 191055Z AUTO 20010KT 9999 NCD 13/10 Q1004 BLU

TAF TAF EBCV
Valido dal 19 a 13 ore il 19 a 22 ore UTC


191141Z 1913/1922 19010KT 9999 SCT015 BKN040 BY EBWM



MetMap, La meteo Aeronautica in un colpo d'occhio ! - Copyright ORBIFLY Dicembre 2007 - Disclaimer

ORBIFLY MET'MAP TEAM :

Programmazione e sviluppo : Alexandra Zaïnal
Concezione e sviluppo : Baudouin d'Aumeries
Co-Programmazione e sviluppo : Marc-Olivier Méhu
Supporto tecnico e logistico : Manuel Goepfert
Aiuto per la traduzione : Arnaldo La Scala

Contatto : metmap@orbifly.com




FONTI E CREDITI :

   NOAA